createdAt,value
2022-10-11T00:01:09.689Z,101128.81
2022-10-11T00:03:40.042Z,101132.44
2022-10-11T00:06:10.687Z,101125.16
2022-10-11T00:08:43.053Z,101131.66
2022-10-11T00:11:13.789Z,101128.38
2022-10-11T00:13:43.948Z,101136.09
2022-10-11T00:16:15.996Z,101134.88
2022-10-11T00:18:46.196Z,101136.88
2022-10-11T00:21:24.243Z,101136.47
2022-10-11T00:23:56.539Z,101134.88
2022-10-11T00:26:26.903Z,101130.75
2022-10-11T00:28:57.027Z,101137.63
2022-10-11T00:31:28.370Z,101140.47
2022-10-11T00:34:00.260Z,101138.84
2022-10-11T00:36:30.755Z,101135.63
2022-10-11T00:39:03.086Z,101136.38
2022-10-11T00:41:33.587Z,101130.28
2022-10-11T00:44:20.983Z,101130.25
2022-10-11T00:46:59.074Z,101129.41
2022-10-11T00:49:37.929Z,101132.22
2022-10-11T00:52:17.580Z,101126.13
2022-10-11T00:54:51.760Z,101122.84
2022-10-11T00:57:27.008Z,101123.63
2022-10-11T00:59:59.508Z,101129.28
2022-10-11T01:02:30.987Z,101123.63
2022-10-11T01:05:25.636Z,101126.88
2022-10-11T01:07:52.917Z,101122.84
2022-10-11T01:10:25.645Z,101127.28
2022-10-11T01:13:11.255Z,101124.44
2022-10-11T01:15:53.113Z,101125.28
2022-10-11T01:18:32.693Z,101123.66
2022-10-11T01:21:13.868Z,101127.25
2022-10-11T01:24:34.795Z,101123.19
2022-10-11T01:27:57.943Z,101124.38
2022-10-11T01:30:32.619Z,101121.94
2022-10-11T01:33:23.542Z,101128.41
2022-10-11T01:36:08.261Z,101119.44
2022-10-11T01:38:46.875Z,101122.25
2022-10-11T01:41:26.757Z,101119.84
2022-10-11T01:44:02.966Z,101124.28
2022-10-11T01:46:36.883Z,101121.00
2022-10-11T01:49:08.067Z,101119.78
2022-10-11T01:51:46.983Z,101113.28
2022-10-11T01:55:04.392Z,101124.59
2022-10-11T01:57:57.302Z,101120.13
2022-10-11T02:00:31.768Z,101111.28
2022-10-11T02:03:29.458Z,101113.69
2022-10-11T02:06:08.316Z,101109.25
2022-10-11T02:09:04.359Z,101108.06
2022-10-11T02:11:39.898Z,101113.38
2022-10-11T02:14:16.637Z,101108.94
2022-10-11T02:16:51.926Z,101103.72
2022-10-11T02:19:32.526Z,101111.00
2022-10-11T02:22:08.892Z,101106.94
2022-10-11T02:24:44.944Z,101115.47
2022-10-11T02:27:18.213Z,101106.94
2022-10-11T02:29:51.990Z,101119.13
2022-10-11T02:32:23.947Z,101112.22
2022-10-11T02:34:58.835Z,101114.22
2022-10-11T02:37:38.520Z,101114.59
2022-10-11T02:40:18.346Z,101120.63
2022-10-11T02:42:55.434Z,101114.56
2022-10-11T02:45:34.277Z,101114.13
2022-10-11T02:48:05.564Z,101119.38
2022-10-11T02:50:38.016Z,101114.91
2022-10-11T02:53:08.030Z,101124.19
2022-10-11T02:55:38.701Z,101120.09
2022-10-11T02:58:09.127Z,101126.19
2022-10-11T03:00:39.304Z,101127.38
2022-10-11T03:03:09.671Z,101124.53
2022-10-11T03:05:42.806Z,101130.66
2022-10-11T03:08:15.476Z,101129.81
2022-10-11T03:10:46.057Z,101126.63
2022-10-11T03:13:18.364Z,101121.75
2022-10-11T03:16:02.357Z,101125.41
2022-10-11T03:18:34.338Z,101127.81
2022-10-11T03:21:07.111Z,101124.97
2022-10-11T03:23:36.937Z,101127.38
2022-10-11T03:26:08.220Z,101124.53
2022-10-11T03:28:39.141Z,101122.50
2022-10-11T03:31:09.721Z,101128.19
2022-10-11T03:33:40.011Z,101125.34
2022-10-11T03:36:12.699Z,101126.56
2022-10-11T03:38:43.155Z,101128.56
2022-10-11T03:41:13.793Z,101133.44
2022-10-11T03:43:44.233Z,101129.78
2022-10-11T03:46:14.937Z,101129.78
2022-10-11T03:48:45.219Z,101135.00
2022-10-11T03:51:18.038Z,101130.53
2022-10-11T03:53:48.749Z,101133.78
2022-10-11T03:56:19.033Z,101132.97
2022-10-11T03:58:49.676Z,101130.94
2022-10-11T04:01:20.477Z,101132.16
2022-10-11T04:03:50.609Z,101129.72
2022-10-11T04:06:23.197Z,101130.50
2022-10-11T04:08:53.018Z,101132.53
2022-10-11T04:11:23.297Z,101133.75
2022-10-11T04:13:53.127Z,101132.53
2022-10-11T04:16:23.640Z,101132.13
2022-10-11T04:18:53.493Z,101136.16
2022-10-11T04:21:26.003Z,101130.88
2022-10-11T04:23:56.997Z,101131.69
2022-10-11T04:26:26.488Z,101135.34
2022-10-11T04:29:05.010Z,101134.94
2022-10-11T04:31:35.412Z,101137.38
2022-10-11T04:34:05.942Z,101139.00
2022-10-11T04:36:39.556Z,101141.09
2022-10-11T04:39:11.021Z,101144.78
2022-10-11T04:41:41.425Z,101155.31
2022-10-11T04:44:11.776Z,101151.72
2022-10-11T04:46:42.205Z,101154.63
2022-10-11T04:49:12.612Z,101155.53
2022-10-11T04:51:44.385Z,101161.72
2022-10-11T04:54:14.797Z,101157.34
2022-10-11T04:56:45.288Z,101148.50
2022-10-11T04:59:15.651Z,101156.28
2022-10-11T05:01:46.081Z,101160.44
2022-10-11T05:04:16.574Z,101158.50
2022-10-11T05:06:48.417Z,101160.63
2022-10-11T05:09:18.175Z,101159.47
2022-10-11T05:11:48.318Z,101170.09
2022-10-11T05:14:18.689Z,101162.44
2022-10-11T05:16:48.985Z,101160.88
2022-10-11T05:19:20.042Z,101161.34
2022-10-11T05:21:52.402Z,101160.59
2022-10-11T05:24:23.121Z,101159.81
2022-10-11T05:26:53.481Z,101169.59
2022-10-11T05:29:23.884Z,101167.22
2022-10-11T05:31:54.302Z,101163.63
2022-10-11T05:34:24.811Z,101168.94
2022-10-11T05:36:57.780Z,101166.97
2022-10-11T05:39:30.210Z,101162.53
2022-10-11T05:42:00.616Z,101168.22
2022-10-11T05:44:31.051Z,101166.59
2022-10-11T05:47:01.083Z,101171.50
2022-10-11T05:49:31.568Z,101172.31
2022-10-11T05:52:03.077Z,101173.19
2022-10-11T05:54:33.520Z,101169.13
2022-10-11T05:57:03.986Z,101175.63
2022-10-11T05:59:34.430Z,101176.44
2022-10-11T06:02:04.464Z,101179.72
2022-10-11T06:04:38.164Z,101173.63
2022-10-11T06:07:10.837Z,101171.19
2022-10-11T06:09:40.946Z,101168.78
2022-10-11T06:12:11.552Z,101172.81
2022-10-11T06:14:41.781Z,101172.41
2022-10-11T06:17:12.234Z,101174.44
2022-10-11T06:19:42.504Z,101166.28
2022-10-11T06:22:16.134Z,101164.22
2022-10-11T06:24:47.268Z,101166.25
2022-10-11T06:27:17.806Z,101174.34
2022-10-11T06:29:48.259Z,101167.44
2022-10-11T06:32:19.313Z,101170.66
2022-10-11T06:34:49.796Z,101173.44
2022-10-11T06:37:22.229Z,101166.91
2022-10-11T06:39:53.199Z,101172.56
2022-10-11T06:42:23.896Z,101167.22
2022-10-11T06:44:54.565Z,101179.00
2022-10-11T06:47:25.123Z,101168.31
2022-10-11T06:49:56.008Z,101163.38
2022-10-11T06:52:28.393Z,101159.28
2022-10-11T06:54:58.760Z,101163.75
2022-10-11T06:57:30.554Z,101158.38
2022-10-11T07:00:00.658Z,101159.09
2022-10-11T07:02:30.970Z,101153.75
2022-10-11T07:05:01.452Z,101155.34
2022-10-11T07:07:33.475Z,101157.31
2022-10-11T07:10:03.796Z,101149.53
2022-10-11T07:12:33.689Z,101153.16
2022-10-11T07:15:03.966Z,101144.06
2022-10-11T07:17:34.386Z,101137.06
2022-10-11T07:20:10.591Z,101140.66
2022-10-11T07:22:43.142Z,101151.25
2022-10-11T07:25:13.602Z,101146.31
2022-10-11T07:27:43.221Z,101142.22
2022-10-11T07:30:14.996Z,101150.31
2022-10-11T07:32:45.207Z,101148.63
2022-10-11T07:35:15.699Z,101148.28
2022-10-11T07:37:48.435Z,101154.81
2022-10-11T07:40:18.454Z,101140.53
2022-10-11T07:42:49.001Z,101141.34
2022-10-11T07:45:19.742Z,101141.28
2022-10-11T07:47:49.858Z,101145.31
2022-10-11T07:50:20.738Z,101135.47
2022-10-11T07:52:53.480Z,101152.53
2022-10-11T07:55:23.797Z,101130.00
2022-10-11T07:57:55.505Z,101138.47
2022-10-11T08:00:25.902Z,101140.03
2022-10-11T08:02:55.709Z,101132.69
2022-10-11T08:05:25.995Z,101139.59
2022-10-11T08:07:58.913Z,101132.66
2022-10-11T08:10:30.177Z,101135.91
2022-10-11T08:13:04.300Z,101136.31
2022-10-11T08:15:34.761Z,101135.09
2022-10-11T08:18:05.364Z,101128.59
2022-10-11T08:20:36.136Z,101136.34
2022-10-11T08:23:08.162Z,101128.59
2022-10-11T08:25:41.824Z,101129.81
2022-10-11T08:28:16.609Z,101120.81
2022-10-11T08:30:52.073Z,101130.19
2022-10-11T08:33:24.823Z,101126.09
2022-10-11T08:35:57.764Z,101120.78
2022-10-11T08:38:29.064Z,101117.91
2022-10-11T08:41:01.462Z,101127.75
2022-10-11T08:43:46.677Z,101118.75
2022-10-11T08:46:18.713Z,101119.56
2022-10-11T08:48:51.669Z,101118.34
2022-10-11T08:51:31.114Z,101113.84
2022-10-11T08:54:09.469Z,101112.22
2022-10-11T08:56:42.322Z,101103.25
2022-10-11T08:59:32.833Z,101111.84
2022-10-11T09:02:21.641Z,101106.94
2022-10-11T09:04:57.727Z,101112.66
2022-10-11T09:07:47.093Z,101100.78
2022-10-11T09:10:57.956Z,101098.38
2022-10-11T09:14:00.221Z,101107.78
2022-10-11T09:16:50.198Z,101098.81
2022-10-11T09:20:14.906Z,101096.06
2022-10-11T09:23:00.595Z,101099.38
2022-10-11T09:25:37.175Z,101095.25
2022-10-11T09:28:30.882Z,101086.66
2022-10-11T09:31:01.878Z,101087.94
2022-10-11T09:33:39.491Z,101079.00
2022-10-11T09:36:24.291Z,101073.72
2022-10-11T09:39:06.836Z,101072.53
2022-10-11T09:41:48.428Z,101074.59
2022-10-11T09:44:26.541Z,101075.44
2022-10-11T09:47:00.045Z,101067.31
2022-10-11T09:49:50.078Z,101066.97
2022-10-11T09:52:23.824Z,101068.69
2022-10-11T09:55:00.826Z,101064.19
2022-10-11T09:57:34.817Z,101059.31
2022-10-11T10:00:25.039Z,101063.88
2022-10-11T10:02:58.083Z,101057.44
2022-10-11T10:05:30.581Z,101055.47
2022-10-11T10:08:25.119Z,101048.53
2022-10-11T10:11:05.673Z,101049.41
2022-10-11T10:13:47.540Z,101043.72
2022-10-11T10:16:32.235Z,101049.44
2022-10-11T10:19:05.799Z,101049.50
2022-10-11T10:21:39.648Z,101040.53
2022-10-11T10:24:21.467Z,101044.66
2022-10-11T10:27:19.325Z,101038.97
2022-10-11T10:30:13.714Z,101034.53
2022-10-11T10:32:56.904Z,101028.44
2022-10-11T10:35:35.902Z,101031.72
2022-10-11T10:38:26.799Z,101022.38
2022-10-11T10:41:02.703Z,101020.00
2022-10-11T10:43:38.127Z,101021.25
2022-10-11T10:46:58.979Z,101022.53
2022-10-11T10:49:53.819Z,101011.94
2022-10-11T10:53:01.326Z,101007.50
2022-10-11T10:55:42.747Z,101012.47
2022-10-11T10:58:45.358Z,100997.41
2022-10-11T11:01:25.979Z,100993.38
2022-10-11T11:04:24.255Z,100999.91
2022-10-11T11:07:06.517Z,100984.84
2022-10-11T11:09:53.827Z,100979.97
2022-10-11T11:12:43.348Z,100982.00
2022-10-11T11:15:29.237Z,100984.09
2022-10-11T11:18:30.898Z,100982.50
2022-10-11T11:21:41.487Z,100978.88
2022-10-11T11:24:37.166Z,100970.75
2022-10-11T11:27:37.520Z,100977.69
2022-10-11T11:30:14.686Z,100970.78
2022-10-11T11:33:08.667Z,100966.66
2022-10-11T11:35:44.304Z,100971.19
2022-10-11T11:38:35.180Z,100976.88
2022-10-11T11:41:16.570Z,100964.31
2022-10-11T11:44:03.347Z,100960.28
2022-10-11T11:46:40.806Z,100968.47
2022-10-11T11:49:23.397Z,100972.53
2022-10-11T11:51:54.999Z,100959.94
2022-10-11T11:54:39.469Z,100963.59
2022-10-11T11:57:27.800Z,100967.66
2022-10-11T12:00:08.192Z,100957.94
2022-10-11T12:02:53.400Z,100957.09
2022-10-11T12:05:28.320Z,100951.03
2022-10-11T12:08:03.145Z,100950.19
2022-10-11T12:10:41.689Z,100951.44
2022-10-11T12:13:37.819Z,100952.25
2022-10-11T12:16:14.233Z,100960.81
2022-10-11T12:19:02.939Z,100957.97
2022-10-11T12:21:36.301Z,100954.34
2022-10-11T12:24:15.492Z,100947.81
2022-10-11T12:26:50.318Z,100948.66
2022-10-11T12:30:00.909Z,100955.56
2022-10-11T12:32:53.495Z,100954.75
2022-10-11T12:36:04.172Z,100948.69
2022-10-11T12:38:40.516Z,100944.59
2022-10-11T12:41:54.056Z,100946.63
2022-10-11T12:44:28.629Z,100942.97
2022-10-11T12:47:35.607Z,100950.28
2022-10-11T12:50:22.712Z,100954.81
2022-10-11T12:53:08.183Z,100943.47
2022-10-11T12:55:54.315Z,100946.75
2022-10-11T12:58:31.444Z,100956.94
2022-10-11T13:01:37.532Z,100955.75
2022-10-11T13:04:13.435Z,100963.47
2022-10-11T13:06:50.720Z,100961.44
2022-10-11T13:09:31.566Z,100962.25
2022-10-11T13:12:08.357Z,100958.19
2022-10-11T13:14:44.211Z,100955.81
2022-10-11T13:17:23.103Z,100955.00
2022-10-11T13:20:08.196Z,100948.91
2022-10-11T13:22:41.607Z,100950.13
2022-10-11T13:25:18.684Z,100939.94
2022-10-11T13:27:50.848Z,100948.50
2022-10-11T13:30:26.672Z,100947.69
2022-10-11T13:32:58.004Z,100953.41
2022-10-11T13:35:36.238Z,100948.91
2022-10-11T13:38:11.630Z,100953.00
2022-10-11T13:40:42.411Z,100946.50
2022-10-11T13:43:17.458Z,100956.28
2022-10-11T13:45:47.588Z,100958.72
2022-10-11T13:48:20.662Z,100957.09
2022-10-11T13:51:14.532Z,100951.00
2022-10-11T13:54:05.482Z,100957.13
2022-10-11T13:56:44.822Z,100953.50
2022-10-11T13:59:22.502Z,100952.69
2022-10-11T14:02:00.670Z,100959.19
2022-10-11T14:04:43.150Z,100953.50
2022-10-11T14:07:29.783Z,100951.88
2022-10-11T14:10:00.423Z,100946.59
2022-10-11T14:12:36.091Z,100949.00
2022-10-11T14:15:08.970Z,100947.00
2022-10-11T14:17:45.722Z,100941.69
2022-10-11T14:20:22.795Z,100946.63
2022-10-11T14:22:56.521Z,100952.72
2022-10-11T14:25:27.689Z,100950.72
2022-10-11T14:27:58.021Z,100952.78
2022-10-11T14:30:31.944Z,100945.44
2022-10-11T14:33:06.230Z,100951.16
2022-10-11T14:35:38.430Z,100956.44
2022-10-11T14:38:14.572Z,100947.13
2022-10-11T14:40:45.386Z,100951.19
2022-10-11T14:43:16.035Z,100955.63
2022-10-11T14:45:46.676Z,100957.69
2022-10-11T14:48:26.667Z,100962.59
2022-10-11T14:51:10.556Z,100955.28
2022-10-11T14:53:46.652Z,100957.69
2022-10-11T14:56:21.331Z,100958.91
2022-10-11T14:58:52.347Z,100971.09
2022-10-11T15:01:22.727Z,100970.69
2022-10-11T15:03:53.219Z,100968.66
2022-10-11T15:06:26.985Z,100971.50
2022-10-11T15:08:59.332Z,100974.38
2022-10-11T15:11:30.206Z,100977.22
2022-10-11T15:14:00.508Z,100976.81
2022-10-11T15:16:30.238Z,100979.66
2022-10-11T15:19:00.584Z,100972.75
2022-10-11T15:21:32.207Z,100978.03
2022-10-11T15:24:04.587Z,100980.03
2022-10-11T15:26:35.359Z,100981.66
2022-10-11T15:29:05.329Z,100982.09
2022-10-11T15:31:35.644Z,100980.03
2022-10-11T15:34:05.852Z,100973.13
2022-10-11T15:36:35.584Z,100987.38
2022-10-11T15:39:25.229Z,100988.19
2022-10-11T15:41:56.702Z,100991.84
2022-10-11T15:44:27.442Z,100986.59
2022-10-11T15:46:57.934Z,100994.69
2022-10-11T15:49:28.517Z,100988.16
2022-10-11T15:51:58.534Z,100990.63
2022-10-11T15:54:30.879Z,100985.75
2022-10-11T15:57:01.449Z,100988.59
2022-10-11T15:59:31.976Z,100992.66
2022-10-11T16:02:02.246Z,100989.00
2022-10-11T16:04:32.471Z,100994.69
2022-10-11T16:07:03.233Z,100991.03
2022-10-11T16:09:34.963Z,100997.53
2022-10-11T16:12:05.070Z,100996.72
2022-10-11T16:14:35.397Z,101003.25
2022-10-11T16:17:06.110Z,101002.41
2022-10-11T16:19:35.785Z,101000.78
2022-10-11T16:22:06.201Z,101000.78
2022-10-11T16:24:37.581Z,100998.34
2022-10-11T16:27:08.103Z,101001.19
2022-10-11T16:29:38.437Z,101011.78
2022-10-11T16:32:09.479Z,101010.97
2022-10-11T16:34:39.609Z,101015.84
2022-10-11T16:37:13.474Z,101014.22
2022-10-11T16:39:46.061Z,101017.47
2022-10-11T16:42:16.084Z,101026.84
2022-10-11T16:44:47.086Z,101032.94
2022-10-11T16:47:19.014Z,101024.00
2022-10-11T16:49:49.233Z,101021.16
2022-10-11T16:52:19.756Z,101026.44
2022-10-11T16:54:55.800Z,101021.16
2022-10-11T16:57:26.526Z,101028.06
2022-10-11T16:59:57.065Z,101032.53
2022-10-11T17:02:32.446Z,101033.78
2022-10-11T17:05:03.137Z,101034.16
2022-10-11T17:07:34.298Z,101033.38
2022-10-11T17:10:07.412Z,101039.06
2022-10-11T17:12:39.033Z,101035.00
2022-10-11T17:15:14.102Z,101031.34
2022-10-11T17:17:44.352Z,101035.81
2022-10-11T17:20:14.637Z,101034.59
2022-10-11T17:22:44.591Z,101035.00
2022-10-11T17:25:16.976Z,101032.16
2022-10-11T17:27:47.207Z,101027.28
2022-10-11T17:30:17.643Z,101035.41
2022-10-11T17:32:48.031Z,101038.25
2022-10-11T17:35:18.595Z,101026.06
2022-10-11T17:37:50.282Z,101017.94
2022-10-11T17:40:22.589Z,101031.75
2022-10-11T17:42:52.821Z,101033.00
2022-10-11T17:45:22.996Z,101027.28
2022-10-11T17:47:53.180Z,101033.00
2022-10-11T17:50:23.619Z,101038.69
2022-10-11T17:52:54.239Z,101030.53
2022-10-11T17:55:26.288Z,101036.22
2022-10-11T17:57:56.307Z,101032.56
2022-10-11T18:00:26.834Z,101030.94
2022-10-11T18:02:57.431Z,101031.34
2022-10-11T18:05:27.607Z,101028.91
2022-10-11T18:07:57.933Z,101039.06
2022-10-11T18:10:30.154Z,101038.28
2022-10-11T18:13:05.740Z,101038.28
2022-10-11T18:15:36.848Z,101036.66
2022-10-11T18:18:07.700Z,101043.13
2022-10-11T18:20:37.739Z,101035.03
2022-10-11T18:23:08.328Z,101032.56
2022-10-11T18:25:40.751Z,101031.75
2022-10-11T18:28:10.993Z,101030.13
2022-10-11T18:30:45.312Z,101032.97
2022-10-11T18:33:17.578Z,101028.13
2022-10-11T18:35:48.076Z,101035.03
2022-10-11T18:38:18.416Z,101037.03
2022-10-11T18:40:50.143Z,101046.41
2022-10-11T18:43:19.821Z,101041.94
2022-10-11T18:45:50.324Z,101045.56
2022-10-11T18:48:20.803Z,101046.00
2022-10-11T18:50:51.880Z,101057.38
2022-10-11T18:53:22.360Z,101051.69
2022-10-11T18:56:00.741Z,101050.84
2022-10-11T18:58:33.067Z,101056.53
2022-10-11T19:01:08.629Z,101056.13
2022-10-11T19:03:39.335Z,101053.28
2022-10-11T19:06:13.308Z,101052.44
2022-10-11T19:08:43.623Z,101053.66
2022-10-11T19:11:17.257Z,101050.03
2022-10-11T19:13:47.573Z,101051.25
2022-10-11T19:16:20.433Z,101056.94
2022-10-11T19:18:52.759Z,101049.63
2022-10-11T19:21:23.512Z,101059.38
2022-10-11T19:23:54.370Z,101053.66
2022-10-11T19:26:29.559Z,101053.66
2022-10-11T19:29:02.524Z,101060.56
2022-10-11T19:31:33.483Z,101062.63
2022-10-11T19:34:03.790Z,101055.31
2022-10-11T19:36:36.666Z,101057.31
2022-10-11T19:39:08.333Z,101058.16
2022-10-11T19:41:40.594Z,101054.47
2022-10-11T19:44:11.131Z,101051.25
2022-10-11T19:46:51.430Z,101046.78
2022-10-11T19:49:25.389Z,101047.16
2022-10-11T19:51:56.293Z,101050.00
2022-10-11T19:54:26.847Z,101048.38
2022-10-11T19:56:58.645Z,101041.91
2022-10-11T19:59:29.116Z,101040.25
2022-10-11T20:01:59.055Z,101038.25
2022-10-11T20:07:19.937Z,101038.22
2022-10-11T20:09:50.372Z,101039.47
2022-10-11T20:12:22.767Z,101033.78
2022-10-11T20:14:53.121Z,101035.00
2022-10-11T20:17:43.318Z,101030.09
2022-10-11T20:20:13.813Z,101032.53
2022-10-11T20:22:44.540Z,101033.75
2022-10-11T20:25:15.153Z,101028.06
2022-10-11T20:27:47.463Z,101022.38
2022-10-11T20:30:17.959Z,101019.94
2022-10-11T20:32:47.898Z,101022.78
2022-10-11T20:35:18.430Z,101013.47
2022-10-11T20:37:48.565Z,101019.94
2022-10-11T20:40:19.002Z,101020.78
2022-10-11T20:42:50.767Z,101028.47
2022-10-11T20:45:20.989Z,101031.31
2022-10-11T20:47:51.365Z,101027.69
2022-10-11T20:50:23.224Z,101025.63
2022-10-11T20:52:53.570Z,101024.84
2022-10-11T20:55:23.591Z,101032.53
2022-10-11T20:57:57.140Z,101032.53
2022-10-11T21:00:27.518Z,101030.13
2022-10-11T21:02:57.836Z,101028.06
2022-10-11T21:05:27.987Z,101027.28
2022-10-11T21:07:59.234Z,101024.81
2022-10-11T21:10:29.671Z,101024.00
2022-10-11T21:13:02.607Z,101028.06
2022-10-11T21:15:34.047Z,101024.81
2022-10-11T21:18:04.485Z,101016.69
2022-10-11T21:20:34.203Z,101022.38
2022-10-11T21:23:04.782Z,101020.75
2022-10-11T21:25:37.050Z,101019.13
2022-10-11T21:28:09.962Z,101013.03
2022-10-11T21:30:40.422Z,101013.03
2022-10-11T21:33:10.842Z,101016.28
2022-10-11T21:35:42.479Z,101014.66
2022-10-11T21:38:14.413Z,101011.03
2022-10-11T21:40:44.769Z,101009.78
2022-10-11T21:43:16.778Z,101002.88
2022-10-11T21:45:46.716Z,101006.94
2022-10-11T21:48:17.169Z,101002.47
2022-10-11T21:50:53.634Z,101004.09
2022-10-11T21:53:23.662Z,101004.47
2022-10-11T21:56:00.328Z,101006.91
2022-10-11T21:58:32.098Z,101005.69
2022-10-11T22:01:02.351Z,101007.31
2022-10-11T22:03:32.017Z,101017.06
2022-10-11T22:06:05.232Z,101010.97
2022-10-11T22:08:36.116Z,101000.81
2022-10-11T22:11:06.930Z,101003.22
2022-10-11T22:13:39.025Z,101006.47
2022-10-11T22:16:12.502Z,101009.28
2022-10-11T22:18:43.756Z,101004.03
2022-10-11T22:21:26.229Z,101008.06
2022-10-11T22:23:57.554Z,101013.34
2022-10-11T22:26:32.311Z,101009.28
2022-10-11T22:29:03.940Z,101013.34
2022-10-11T22:31:34.698Z,101021.06
2022-10-11T22:34:06.021Z,101028.38
2022-10-11T22:36:36.484Z,101020.22
2022-10-11T22:39:08.513Z,101021.84
2022-10-11T22:41:39.736Z,101021.44
2022-10-11T22:44:13.239Z,101025.09
2022-10-11T22:46:43.747Z,101023.84
2022-10-11T22:49:13.684Z,101033.19
2022-10-11T22:51:44.697Z,101024.63
2022-10-11T22:54:14.809Z,101029.06
2022-10-11T22:56:44.922Z,101026.19
2022-10-11T22:59:17.601Z,101026.56
2022-10-11T23:01:47.981Z,101020.88
2022-10-11T23:04:19.697Z,101028.59
2022-10-11T23:06:50.088Z,101026.94
2022-10-11T23:09:20.290Z,101020.00
2022-10-11T23:11:50.149Z,101026.91
2022-10-11T23:14:22.296Z,101016.78
2022-10-11T23:16:54.125Z,101015.16
2022-10-11T23:19:24.119Z,101015.53
2022-10-11T23:21:54.395Z,101019.56
2022-10-11T23:24:24.691Z,101018.34
2022-10-11T23:26:55.046Z,101021.59
2022-10-11T23:29:27.405Z,101020.38
2022-10-11T23:31:57.524Z,101008.59
2022-10-11T23:34:27.629Z,101013.47
2022-10-11T23:36:57.626Z,101013.47
2022-10-11T23:39:28.000Z,101019.13
2022-10-11T23:41:58.701Z,101011.03
2022-10-11T23:44:30.302Z,101011.03
2022-10-11T23:47:00.476Z,101010.59
2022-10-11T23:49:30.254Z,101015.47
2022-10-11T23:52:00.660Z,101005.34
2022-10-11T23:54:31.179Z,101010.19
2022-10-11T23:57:01.134Z,101002.50
2022-10-11T23:59:33.176Z,101002.91
